Time;durP1;ratioP1;P1;durP2;ratioP2;P2;SDS_P1;SDS_P2;PMS_P1;PMS_P2;Temp;Humidity;BMP_temperature;BMP_pressure;BME280_temperature;BME280_humidity;BME280_pressure;Samples;Min_cycle;Max_cycle;Signal;HPM_P1;HPM_P2
2023/02/01 00:01:20;;;;;;;23.97;3.43;;;;;;;-145.18;100.00;60484.78;5028244;28;20025;-70
2023/02/01 00:03:46;;;;;;;16.17;2.47;;;;;;;-145.18;100.00;60484.78;5028755;28;20033;-71
2023/02/01 00:06:11;;;;;;;19.07;3.27;;;;;;;-145.18;100.00;60484.78;5022736;28;20134;-71
2023/02/01 00:08:37;;;;;;;17.70;3.00;;;;;;;-145.18;100.00;60484.78;5020045;28;20030;-70
2023/02/01 00:11:05;;;;;;;21.13;2.57;;;;;;;-145.18;100.00;60484.78;5023973;28;20025;-70
2023/02/01 00:13:32;;;;;;;17.60;2.97;;;;;;;-145.18;100.00;60484.78;5029891;28;20039;-70
2023/02/01 00:16:07;;;;;;;19.67;3.13;;;;;;;-145.18;100.00;60484.78;5031791;28;20381;-70
2023/02/01 00:18:32;;;;;;;12.87;2.40;;;;;;;-145.18;100.00;60484.78;5013653;28;20508;-70
2023/02/01 00:20:58;;;;;;;15.73;2.90;;;;;;;-145.18;100.00;60484.78;5031631;28;20033;-70
2023/02/01 00:23:24;;;;;;;11.93;2.43;;;;;;;-145.18;100.00;60484.78;5029456;28;20111;-71
2023/02/01 00:25:49;;;;;;;18.37;3.10;;;;;;;-145.18;100.00;60484.78;5030830;28;20057;-70
2023/02/01 00:28:15;;;;;;;12.53;2.63;;;;;;;-145.18;100.00;60484.78;5031420;28;20029;-70
2023/02/01 00:30:40;;;;;;;17.60;2.70;;;;;;;-145.18;100.00;60484.78;5031418;28;20461;-70
2023/02/01 00:33:06;;;;;;;13.50;1.87;;;;;;;-145.18;100.00;60484.78;5031057;28;20099;-70
2023/02/01 00:35:33;;;;;;;15.30;2.30;;;;;;;-145.18;100.00;60484.78;5030546;28;20021;-70
2023/02/01 00:38:00;;;;;;;14.07;2.83;;;;;;;-145.18;100.00;60484.78;5029753;28;20105;-70
2023/02/01 00:40:26;;;;;;;17.67;2.43;;;;;;;-145.18;100.00;60484.78;5031055;28;20029;-70
2023/02/01 00:42:51;;;;;;;13.07;2.07;;;;;;;-145.18;100.00;60484.78;5028881;28;20088;-70
2023/02/01 00:45:18;;;;;;;18.47;2.63;;;;;;;-145.18;100.00;60484.78;5030983;28;20092;-69
2023/02/01 00:47:43;;;;;;;21.80;3.03;;;;;;;-145.18;100.00;60484.78;5031088;28;20404;-70
2023/02/01 00:50:10;;;;;;;18.33;3.00;;;;;;;-145.18;100.00;60484.78;5031226;28;20021;-70
2023/02/01 00:52:35;;;;;;;18.90;2.70;;;;;;;-145.18;100.00;60484.78;5029485;28;20029;-71
2023/02/01 00:55:01;;;;;;;11.47;2.37;;;;;;;-145.18;100.00;60484.78;5030838;28;20087;-71
2023/02/01 00:57:27;;;;;;;14.33;2.63;;;;;;;-145.18;100.00;60484.78;5030917;28;20463;-70
2023/02/01 00:59:52;;;;;;;23.63;2.80;;;;;;;-145.18;100.00;60484.78;5030757;28;20035;-71
2023/02/01 01:02:17;;;;;;;22.20;3.07;;;;;;;-145.18;100.00;60484.78;5030186;28;20028;-71
2023/02/01 01:04:43;;;;;;;12.53;2.30;;;;;;;-145.18;100.00;60484.78;5030546;28;20041;-71
2023/02/01 01:07:08;;;;;;;19.00;2.77;;;;;;;-145.18;100.00;60484.78;5028964;28;20298;-71
2023/02/01 01:09:34;;;;;;;26.27;2.60;;;;;;;-145.18;100.00;60484.78;5030530;28;20068;-71
2023/02/01 01:12:02;;;;;;;17.20;3.30;;;;;;;-145.18;100.00;60484.78;5033263;28;20025;-71
2023/02/01 01:14:32;;;;;;;17.67;2.43;;;;;;;-145.18;100.00;60484.78;5033363;28;20117;-71
2023/02/01 01:16:58;;;;;;;23.77;3.80;;;;;;;-145.18;100.00;60484.78;5033538;28;20060;-72
2023/02/01 01:19:24;;;;;;;21.23;2.87;;;;;;;-145.18;100.00;60484.78;5018782;28;20081;-71
2023/02/01 01:21:49;;;;;;;9.20;1.77;;;;;;;-145.18;100.00;60484.78;5032732;28;20025;-71
2023/02/01 01:24:15;;;;;;;22.07;3.17;;;;;;;-145.18;100.00;60484.78;5031222;28;20025;-71
2023/02/01 01:26:42;;;;;;;14.87;2.20;;;;;;;-145.18;100.00;60484.78;5034053;28;20061;-70
2023/02/01 01:29:09;;;;;;;10.63;2.10;;;;;;;-145.18;100.00;60484.78;5034375;28;20484;-71
2023/02/01 01:31:36;;;;;;;12.37;2.20;;;;;;;-145.18;100.00;60484.78;5034165;28;20033;-71
2023/02/01 01:34:02;;;;;;;17.07;2.73;;;;;;;-145.18;100.00;60484.78;5034351;28;20481;-71
2023/02/01 01:36:28;;;;;;;13.20;3.00;;;;;;;-145.18;100.00;60484.78;5033072;28;20036;-71
2023/02/01 01:38:59;;;;;;;22.73;3.53;;;;;;;-145.18;100.00;60484.78;5033358;28;20036;-71
2023/02/01 01:41:30;;;;;;;18.63;2.70;;;;;;;-145.18;100.00;60484.78;5034188;28;20088;-71
2023/02/01 01:44:03;;;;;;;;;;;;;;;-145.18;100.00;60484.78;5030678;28;20045;-71
2023/02/01 01:46:37;;;;;;;19.33;3.50;;;;;;;-145.18;100.00;60484.78;5033987;28;20392;-71
2023/02/01 01:49:33;;;;;;;9.87;2.07;;;;;;;-145.18;100.00;60484.78;5033831;28;20084;-71
2023/02/01 01:52:02;;;;;;;13.10;1.70;;;;;;;-145.18;100.00;60484.78;5012399;28;20049;-71
2023/02/01 01:54:38;;;;;;;12.87;2.77;;;;;;;-145.18;100.00;60484.78;5032999;28;20124;-71
2023/02/01 01:57:27;;;;;;;11.37;1.90;;;;;;;-145.18;100.00;60484.78;5029042;28;20456;-71
2023/02/01 02:00:05;;;;;;;20.97;3.00;;;;;;;-145.18;100.00;60484.78;5019965;28;20041;-71
2023/02/01 02:02:32;;;;;;;18.50;3.03;;;;;;;-145.18;100.00;60484.78;5041039;22;20045;-68
2023/02/01 02:04:57;;;;;;;9.03;2.13;;;;;;;-145.18;100.00;60484.78;5023938;28;20044;-67
2023/02/01 02:07:33;;;;;;;18.37;2.50;;;;;;;-145.18;100.00;60484.78;5018490;28;20038;-67
2023/02/01 02:10:05;;;;;;;20.10;2.30;;;;;;;-145.18;100.00;60484.78;5024576;28;20033;-67
2023/02/01 02:12:31;;;;;;;18.27;4.03;;;;;;;-145.18;100.00;60484.78;5025395;28;20034;-67
2023/02/01 02:14:59;;;;;;;25.13;3.73;;;;;;;-145.18;100.00;60484.78;5022428;28;20488;-67
2023/02/01 02:17:52;;;;;;;23.63;2.73;;;;;;;-145.18;100.00;60484.78;5013446;28;20033;-67
2023/02/01 02:20:46;;;;;;;15.60;2.70;;;;;;;-145.18;100.00;60484.78;5022687;28;20026;-67
2023/02/01 02:23:26;;;;;;;13.27;2.67;;;;;;;-145.18;100.00;60484.78;5028289;28;20528;-68
2023/02/01 02:26:26;;;;;;;22.13;2.93;;;;;;;-145.18;100.00;60484.78;5024827;28;20080;-67
2023/02/01 02:29:29;;;;;;;14.17;2.87;;;;;;;-145.18;100.00;60484.78;5031015;28;20029;-67
2023/02/01 02:32:20;;;;;;;12.18;3.05;;;;;;;-145.18;100.00;60484.78;5014591;28;20030;-68
2023/02/01 02:35:09;;;;;;;19.77;3.08;;;;;;;-145.18;100.00;60484.78;5030204;28;20044;-68
2023/02/01 02:38:00;;;;;;;13.70;1.83;;;;;;;-145.18;100.00;60484.78;5015303;28;20117;-68
2023/02/01 02:40:42;;;;;;;14.47;2.90;;;;;;;-145.18;100.00;60484.78;5030980;28;20412;-67
2023/02/01 02:49:08;;;;;;;17.73;2.97;;;;;;;-145.18;100.00;60484.78;5029159;28;20044;-67
2023/02/01 02:54:47;;;;;;;11.30;2.00;;;;;;;-145.18;100.00;60484.78;5031383;28;20103;-68
2023/02/01 03:06:00;;;;;;;13.70;2.87;;;;;;;-145.18;100.00;60484.78;5011664;28;20041;-65
2023/02/01 03:08:28;;;;;;;16.37;2.67;;;;;;;-145.18;100.00;60484.78;5011860;28;20037;-66
2023/02/01 03:11:08;;;;;;;20.43;3.07;;;;;;;-145.18;100.00;60484.78;5011178;28;20061;-66
2023/02/01 03:13:43;;;;;;;16.33;2.37;;;;;;;-145.18;100.00;60484.78;5011941;28;20088;-66
2023/02/01 03:16:25;;;;;;;20.17;3.60;;;;;;;-145.18;100.00;60484.78;5009854;28;20022;-65
2023/02/01 03:18:56;;;;;;;13.93;3.23;;;;;;;-145.18;100.00;60484.78;5012002;28;20690;-66
2023/02/01 03:21:35;;;;;;;13.27;2.40;;;;;;;-145.18;100.00;60484.78;5012105;28;20014;-66
2023/02/01 03:24:09;;;;;;;18.83;3.00;;;;;;;-145.18;100.00;60484.78;5011469;28;20042;-65
2023/02/01 03:26:38;;;;;;;13.90;2.93;;;;;;;-145.18;100.00;60484.78;5011435;28;20165;-66
2023/02/01 03:29:17;;;;;;;19.27;3.03;;;;;;;-145.18;100.00;60484.78;5011516;28;20116;-66
2023/02/01 03:31:44;;;;;;;19.30;3.73;;;;;;;-145.18;100.00;60484.78;5006317;28;20061;-68
2023/02/01 03:34:12;;;;;;;18.07;2.73;;;;;;;-145.18;100.00;60484.78;5011171;28;20096;-67
2023/02/01 03:36:48;;;;;;;22.90;4.20;;;;;;;-145.18;100.00;60484.78;5011084;28;20033;-67
2023/02/01 03:39:22;;;;;;;24.03;4.13;;;;;;;-145.18;100.00;60484.78;5011081;28;20032;-68
2023/02/01 03:41:52;;;;;;;21.97;3.53;;;;;;;-145.18;100.00;60484.78;5011111;28;20041;-67
2023/02/01 03:44:21;;;;;;;25.93;3.50;;;;;;;-145.18;100.00;60484.78;5011070;28;20026;-67
2023/02/01 03:46:55;;;;;;;24.87;2.97;;;;;;;-145.18;100.00;60484.78;5022866;28;20063;-66
2023/02/01 03:49:27;;;;;;;22.33;3.57;;;;;;;-145.18;100.00;60484.78;5022075;28;20076;-67
2023/02/01 03:51:54;;;;;;;23.07;3.47;;;;;;;-145.18;100.00;60484.78;5011129;28;20041;-66
2023/02/01 03:54:21;;;;;;;14.10;2.20;;;;;;;-145.18;100.00;60484.78;5010642;28;20056;-66
2023/02/01 03:56:48;;;;;;;14.23;2.50;;;;;;;-145.18;100.00;60484.78;4991994;28;20110;-66
2023/02/01 03:59:14;;;;;;;8.50;2.10;;;;;;;-145.18;100.00;60484.78;5011032;28;20100;-66
2023/02/01 04:01:40;;;;;;;17.37;2.73;;;;;;;-145.18;100.00;60484.78;5010935;28;20396;-66
2023/02/01 04:04:06;;;;;;;17.30;2.70;;;;;;;-145.18;100.00;60484.78;5010852;28;20037;-66
2023/02/01 04:06:31;;;;;;;12.43;2.80;;;;;;;-145.18;100.00;60484.78;5011059;28;20105;-65
2023/02/01 04:08:57;;;;;;;11.67;1.97;;;;;;;-145.18;100.00;60484.78;5010849;28;20029;-66
2023/02/01 04:11:22;;;;;;;13.33;2.10;;;;;;;-145.18;100.00;60484.78;5010288;28;20017;-66
2023/02/01 04:13:47;;;;;;;21.27;3.80;;;;;;;-145.18;100.00;60484.78;5011597;28;20021;-65
2023/02/01 04:16:13;;;;;;;10.10;2.50;;;;;;;-145.18;100.00;60484.78;5011160;28;20034;-66
2023/02/01 04:18:38;;;;;;;17.47;2.43;;;;;;;-145.18;100.00;60484.78;5010558;28;20125;-67
2023/02/01 04:21:04;;;;;;;19.30;3.47;;;;;;;-145.18;100.00;60484.78;5011279;28;20084;-66
2023/02/01 04:23:31;;;;;;;13.70;3.27;;;;;;;-145.18;100.00;60484.78;5010658;28;20060;-65
2023/02/01 04:26:01;;;;;;;19.90;3.37;;;;;;;-145.18;100.00;60484.78;5011519;28;20025;-66
2023/02/01 04:28:27;;;;;;;17.03;2.80;;;;;;;-145.18;100.00;60484.78;5010661;28;20018;-67
2023/02/01 04:30:52;;;;;;;11.10;2.57;;;;;;;-145.18;100.00;60484.78;5010798;28;20069;-66
2023/02/01 04:33:17;;;;;;;9.20;2.03;;;;;;;-145.18;100.00;60484.78;5010248;28;20014;-66
2023/02/01 04:35:43;;;;;;;24.27;3.63;;;;;;;-145.18;100.00;60484.78;5011256;28;20049;-65
2023/02/01 04:38:08;;;;;;;18.47;3.70;;;;;;;-145.18;100.00;60484.78;5010194;28;20033;-66
2023/02/01 04:40:34;;;;;;;11.37;2.63;;;;;;;-145.18;100.00;60484.78;5009805;28;20504;-66
2023/02/01 04:43:01;;;;;;;9.17;2.80;;;;;;;-145.18;100.00;60484.78;5010618;28;20061;-65
2023/02/01 04:45:26;;;;;;;14.03;3.10;;;;;;;-145.18;100.00;60484.78;4992853;28;20493;-66
2023/02/01 04:47:53;;;;;;;16.53;3.30;;;;;;;-145.18;100.00;60484.78;5014272;28;20101;-65
2023/02/01 04:50:18;;;;;;;15.50;4.10;;;;;;;-145.18;100.00;60484.78;5014275;28;20068;-66
2023/02/01 04:52:45;;;;;;;17.10;3.23;;;;;;;-145.18;100.00;60484.78;5020552;28;20056;-66
2023/02/01 04:55:13;;;;;;;17.67;3.13;;;;;;;-145.18;100.00;60484.78;4997404;28;20569;-66
2023/02/01 04:57:40;;;;;;;17.37;3.20;;;;;;;-145.18;100.00;60484.78;5014268;28;20060;-66
2023/02/01 05:00:09;;;;;;;20.57;3.53;;;;;;;-145.18;100.00;60484.78;5014364;28;20533;-66
2023/02/01 05:02:35;;;;;;;11.57;2.83;;;;;;;-145.18;100.00;60484.78;5014208;28;20034;-67
2023/02/01 05:05:02;;;;;;;17.33;3.23;;;;;;;-145.18;100.00;60484.78;5013790;28;20032;-66
2023/02/01 05:07:27;;;;;;;19.93;3.80;;;;;;;-145.18;100.00;60484.78;5030419;28;20025;-66
2023/02/01 05:09:53;;;;;;;17.67;3.13;;;;;;;-145.18;100.00;60484.78;5024119;28;20100;-65
2023/02/01 05:15:03;;;;;;;13.70;2.93;;;;;;;-145.18;100.00;60484.78;5009750;28;20447;-66
2023/02/01 05:17:29;;;;;;;12.87;2.67;;;;;;;-145.18;100.00;60484.78;5013975;28;20389;-66
2023/02/01 05:19:55;;;;;;;17.93;3.97;;;;;;;-145.18;100.00;60484.78;5014497;28;20021;-66
2023/02/01 05:22:21;;;;;;;12.17;3.10;;;;;;;-145.18;100.00;60484.78;5013666;28;20041;-66
2023/02/01 05:24:46;;;;;;;14.03;2.60;;;;;;;-145.18;100.00;60484.78;5014408;28;20025;-67
2023/02/01 05:27:12;;;;;;;17.40;3.57;;;;;;;-145.18;100.00;60484.78;5013574;28;20724;-65
2023/02/01 05:29:37;;;;;;;12.63;2.53;;;;;;;-145.18;100.00;60484.78;5013685;28;20014;-67
2023/02/01 05:32:03;;;;;;;11.33;3.30;;;;;;;-145.18;100.00;60484.78;5013060;28;20087;-64
2023/02/01 05:34:28;;;;;;;19.83;3.30;;;;;;;-145.18;100.00;60484.78;5014267;28;20525;-66
2023/02/01 05:36:54;;;;;;;13.77;3.10;;;;;;;-145.18;100.00;60484.78;5013894;28;20014;-65
2023/02/01 05:39:19;;;;;;;14.83;3.07;;;;;;;-145.18;100.00;60484.78;5013626;28;20381;-66
2023/02/01 05:41:44;;;;;;;10.40;1.90;;;;;;;-145.18;100.00;60484.78;5013329;28;20076;-65
2023/02/01 05:44:12;;;;;;;21.00;3.37;;;;;;;-145.18;100.00;60484.78;5013223;28;20025;-66
2023/02/01 05:46:38;;;;;;;14.90;3.17;;;;;;;-145.18;100.00;60484.78;5012913;28;20030;-66
2023/02/01 05:49:04;;;;;;;14.33;3.13;;;;;;;-145.18;100.00;60484.78;5011365;28;20041;-67
2023/02/01 05:51:29;;;;;;;9.83;2.33;;;;;;;-145.18;100.00;60484.78;5011969;28;20492;-65
2023/02/01 05:53:55;;;;;;;15.27;3.40;;;;;;;-145.18;100.00;60484.78;5013594;28;20033;-66
2023/02/01 05:56:20;;;;;;;17.40;3.23;;;;;;;-145.18;100.00;60484.78;5012859;28;20045;-66
2023/02/01 05:58:46;;;;;;;14.83;2.70;;;;;;;-145.18;100.00;60484.78;5011349;28;20111;-67
2023/02/01 06:01:12;;;;;;;12.40;3.27;;;;;;;-145.18;100.00;60484.78;5012634;28;20025;-65
2023/02/01 06:03:37;;;;;;;11.33;2.97;;;;;;;-145.18;100.00;60484.78;5012594;28;20038;-66
2023/02/01 06:06:07;;;;;;;14.87;2.60;;;;;;;-145.18;100.00;60484.78;5010877;28;20029;-66
2023/02/01 06:08:40;;;;;;;13.87;2.73;;;;;;;-145.18;100.00;60484.78;5013425;28;20033;-65
2023/02/01 06:11:10;;;;;;;8.90;3.13;;;;;;;-145.18;100.00;60484.78;5012712;28;20026;-65
2023/02/01 06:13:53;;;;;;;15.70;4.13;;;;;;;-145.18;100.00;60484.78;5012786;28;20121;-65
2023/02/01 06:16:31;;;;;;;16.10;2.97;;;;;;;-145.18;100.00;60484.78;5010786;28;20037;-65
2023/02/01 06:19:08;;;;;;;18.03;3.83;;;;;;;-145.18;100.00;60484.78;5012730;28;20033;-65
2023/02/01 06:21:36;;;;;;;14.33;2.93;;;;;;;-145.18;100.00;60484.78;5012458;28;20022;-66
2023/02/01 06:24:11;;;;;;;14.50;2.70;;;;;;;-145.18;100.00;60484.78;5011214;28;20037;-65
2023/02/01 06:26:41;;;;;;;11.50;3.40;;;;;;;-145.18;100.00;60484.78;5012176;28;20080;-66
2023/02/01 06:29:17;;;;;;;20.73;3.83;;;;;;;-145.18;100.00;60484.78;5012436;28;20486;-66
2023/02/01 06:31:45;;;;;;;18.33;3.23;;;;;;;-145.18;100.00;60484.78;5012826;28;20029;-66
2023/02/01 06:34:10;;;;;;;13.73;3.33;;;;;;;-145.18;100.00;60484.78;5012400;28;20470;-66
2023/02/01 06:36:36;;;;;;;19.83;3.43;;;;;;;-145.18;100.00;60484.78;5013095;28;20068;-66
2023/02/01 06:39:01;;;;;;;16.20;2.80;;;;;;;-145.18;100.00;60484.78;4991336;28;20434;-66
2023/02/01 06:41:26;;;;;;;20.10;3.60;;;;;;;-145.18;100.00;60484.78;5012249;28;20389;-66
2023/02/01 06:43:53;;;;;;;10.17;2.57;;;;;;;-145.18;100.00;60484.78;5012376;28;20048;-65
2023/02/01 06:46:18;;;;;;;13.93;2.43;;;;;;;-145.18;100.00;60484.78;5011865;28;20393;-65
2023/02/01 06:48:45;;;;;;;17.20;2.90;;;;;;;-145.18;100.00;60484.78;5012706;28;20051;-66
2023/02/01 06:51:28;;;;;;;17.17;3.23;;;;;;;-145.18;100.00;60484.78;5012206;28;20018;-65
2023/02/01 06:53:53;;;;;;;27.20;3.97;;;;;;;-145.18;100.00;60484.78;5012469;28;20112;-65
2023/02/01 06:56:20;;;;;;;15.97;3.30;;;;;;;-145.18;100.00;60484.78;5011120;28;20113;-65
2023/02/01 06:58:48;;;;;;;12.80;3.17;;;;;;;-145.18;100.00;60484.78;5011967;28;20463;-65
2023/02/01 07:01:15;;;;;;;12.93;3.43;;;;;;;-145.18;100.00;60484.78;5025097;28;20061;-66
2023/02/01 07:03:41;;;;;;;15.20;2.63;;;;;;;-145.18;100.00;60484.78;5010233;28;20038;-65
2023/02/01 07:06:10;;;;;;;12.93;2.67;;;;;;;-145.18;100.00;60484.78;5030459;28;20041;-65
2023/02/01 07:08:46;;;;;;;17.67;3.03;;;;;;;-145.18;100.00;60484.78;5030486;28;20536;-65
2023/02/01 07:11:24;;;;;;;14.30;2.47;;;;;;;-145.18;100.00;60484.78;5030853;28;20542;-65
2023/02/01 07:13:57;;;;;;;11.10;2.17;;;;;;;-145.18;100.00;60484.78;5020537;28;20117;-65
2023/02/01 07:16:23;;;;;;;12.80;2.83;;;;;;;-145.18;100.00;60484.78;5011849;28;20030;-66
2023/02/01 07:18:51;;;;;;;8.80;2.00;;;;;;;-145.18;100.00;60484.78;5012115;28;20026;-65
2023/02/01 07:21:18;;;;;;;9.47;2.40;;;;;;;-145.18;100.00;60484.78;5008508;28;20030;-66
2023/02/01 07:23:45;;;;;;;12.63;2.80;;;;;;;-145.18;100.00;60484.78;5011863;28;20402;-65
2023/02/01 07:26:24;;;;;;;16.60;2.53;;;;;;;-145.18;100.00;60484.78;5008763;28;20042;-65
2023/02/01 07:28:50;;;;;;;16.10;2.40;;;;;;;-145.18;100.00;60484.78;5004233;28;20043;-66
2023/02/01 07:31:28;;;;;;;14.97;2.70;;;;;;;-145.18;100.00;60484.78;5010743;28;20026;-65
2023/02/01 07:33:58;;;;;;;16.13;2.60;;;;;;;-145.18;100.00;60484.78;5011978;28;20026;-65
2023/02/01 07:36:23;;;;;;;16.03;2.70;;;;;;;-145.18;100.00;60484.78;5011123;28;20057;-65
2023/02/01 07:38:51;;;;;;;12.30;2.53;;;;;;;-145.18;100.00;60484.78;5011715;28;20049;-67
2023/02/01 07:41:18;;;;;;;14.93;2.80;;;;;;;-145.18;100.00;60484.78;5011068;28;20017;-65
2023/02/01 07:43:46;;;;;;;14.40;2.60;;;;;;;-145.18;100.00;60484.78;5010201;28;20080;-66
2023/02/01 07:46:15;;;;;;;19.57;2.77;;;;;;;-145.18;100.00;60484.78;5011708;28;20044;-66
2023/02/01 07:48:41;;;;;;;14.77;2.43;;;;;;;-145.18;100.00;60484.78;5010933;28;20026;-66
2023/02/01 07:51:13;;;;;;;10.17;2.37;;;;;;;-145.18;100.00;60484.78;5011341;28;20377;-65
2023/02/01 07:53:40;;;;;;;;;;;;;;;-145.18;100.00;60484.78;5031106;28;20032;-66
2023/02/01 07:56:19;;;;;;;14.60;3.63;;;;;;;-145.18;100.00;60484.78;5012303;28;19960;-65
2023/02/01 07:58:52;;;;;;;16.43;3.30;;;;;;;-145.18;100.00;60484.78;5029743;28;20076;-66
2023/02/01 08:01:24;;;;;;;12.80;2.50;;;;;;;-145.18;100.00;60484.78;5029843;28;20022;-65
2023/02/01 08:04:01;;;;;;;13.32;2.47;;;;;;;-145.18;100.00;60484.78;5013435;28;20268;-66
2023/02/01 08:06:33;;;;;;;10.60;2.17;;;;;;;-145.18;100.00;60484.78;5010995;28;20470;-66
2023/02/01 08:08:59;;;;;;;;;;;;;;;-145.18;100.00;60484.78;5011887;28;20034;-65
2023/02/01 08:11:25;;;;;;;10.37;2.00;;;;;;;-145.18;100.00;60484.78;5010737;28;19919;-66
2023/02/01 08:13:51;;;;;;;11.80;2.30;;;;;;;-145.18;100.00;60484.78;5010814;28;20429;-65
2023/02/01 08:16:21;;;;;;;9.73;1.90;;;;;;;-145.18;100.00;60484.78;5011662;28;20046;-64
2023/02/01 08:18:46;;;;;;;11.77;2.17;;;;;;;-145.18;100.00;60484.78;5010988;28;20365;-65
2023/02/01 08:21:21;;;;;;;17.47;2.33;;;;;;;-145.18;100.00;60484.78;5010093;28;20028;-65
2023/02/01 08:23:47;;;;;;;14.47;2.37;;;;;;;-145.18;100.00;60484.78;4994888;28;20481;-67
2023/02/01 08:26:18;;;;;;;7.27;1.83;;;;;;;-145.18;100.00;60484.78;5011509;28;20076;-66
2023/02/01 08:28:46;;;;;;;6.23;1.53;;;;;;;-145.18;100.00;60484.78;5014731;28;20445;-66
2023/02/01 08:31:14;;;;;;;15.57;2.37;;;;;;;-145.18;100.00;60484.78;5015320;28;20029;-65
2023/02/01 08:33:41;;;;;;;11.37;2.63;;;;;;;-145.18;100.00;60484.78;5014723;28;20048;-65
2023/02/01 08:36:08;;;;;;;15.07;2.90;;;;;;;-145.18;100.00;60484.78;5015126;28;20022;-66
2023/02/01 08:38:36;;;;;;;7.90;2.20;;;;;;;-145.18;100.00;60484.78;5012293;28;20393;-66
2023/02/01 08:41:13;;;;;;;8.80;1.90;;;;;;;-145.18;100.00;60484.78;5015142;28;20039;-65
2023/02/01 08:43:39;;;;;;;11.03;2.53;;;;;;;-145.18;100.00;60484.78;4996869;28;20018;-65
2023/02/01 08:46:06;;;;;;;15.07;3.10;;;;;;;-145.18;100.00;60484.78;5014103;28;20552;-66
2023/02/01 08:48:32;;;;;;;15.33;2.47;;;;;;;-145.18;100.00;60484.78;5014889;28;20022;-66
2023/02/01 08:51:00;;;;;;;8.87;2.30;;;;;;;-145.18;100.00;60484.78;5014436;28;20121;-66
2023/02/01 08:53:25;;;;;;;10.60;1.83;;;;;;;-145.18;100.00;60484.78;5024103;28;20021;-66
2023/02/01 08:55:51;;;;;;;6.83;1.73;;;;;;;-145.18;100.00;60484.78;5021564;28;20017;-65
2023/02/01 08:58:16;;;;;;;15.73;2.73;;;;;;;-145.18;100.00;60484.78;5014121;28;20578;-66
2023/02/01 09:00:44;;;;;;;16.80;2.17;;;;;;;-145.18;100.00;60484.78;5014832;28;20454;-66
2023/02/01 09:03:11;;;;;;;10.90;2.37;;;;;;;-145.18;100.00;60484.78;5013648;28;20121;-65
2023/02/01 09:05:36;;;;;;;16.67;2.63;;;;;;;-145.18;100.00;60484.78;5014259;28;20109;-65
2023/02/01 09:08:01;;;;;;;9.07;2.23;;;;;;;-145.18;100.00;60484.78;5014754;28;20573;-67
2023/02/01 09:10:27;;;;;;;17.20;2.67;;;;;;;-145.18;100.00;60484.78;5013598;28;20018;-65
2023/02/01 09:12:53;;;;;;;8.70;2.43;;;;;;;-145.18;100.00;60484.78;5011686;28;20017;-66
2023/02/01 09:15:18;;;;;;;20.17;2.27;;;;;;;-145.18;100.00;60484.78;5014856;28;20105;-66
2023/02/01 09:17:44;;;;;;;10.83;2.50;;;;;;;-145.18;100.00;60484.78;5013693;28;20366;-66
2023/02/01 09:20:10;;;;;;;13.07;2.40;;;;;;;-145.18;100.00;60484.78;5014284;28;20018;-66
2023/02/01 09:22:35;;;;;;;13.90;2.43;;;;;;;-145.18;100.00;60484.78;5013943;28;20030;-66
2023/02/01 09:25:01;;;;;;;14.40;3.27;;;;;;;-145.18;100.00;60484.78;5013750;28;20034;-65
2023/02/01 09:27:26;;;;;;;15.80;2.83;;;;;;;-145.18;100.00;60484.78;5014306;28;20010;-66
2023/02/01 09:29:54;;;;;;;14.13;2.50;;;;;;;-145.18;100.00;60484.78;5010625;28;20025;-66
2023/02/01 09:32:21;;;;;;;9.63;2.20;;;;;;;-145.18;100.00;60484.78;5032030;28;20530;-66
2023/02/01 09:34:48;;;;;;;11.47;2.20;;;;;;;-145.18;100.00;60484.78;5032671;28;20026;-66
2023/02/01 09:37:14;;;;;;;9.73;2.40;;;;;;;-145.18;100.00;60484.78;5032254;28;20013;-65
2023/02/01 09:39:42;;;;;;;11.47;2.30;;;;;;;-145.18;100.00;60484.78;5032653;28;20075;-66
2023/02/01 09:42:30;;;;;;;9.53;1.90;;;;;;;-145.18;100.00;60484.78;5032472;28;20048;-63
2023/02/01 09:45:36;;;;;;;11.37;2.50;;;;;;;-145.18;100.00;60484.78;5025248;28;20061;-64
2023/02/01 09:48:27;;;;;;;10.13;2.10;;;;;;;-145.18;100.00;60484.78;5011062;28;20494;-66
2023/02/01 09:50:59;;;;;;;20.23;2.67;;;;;;;-145.18;100.00;60484.78;5014849;28;20018;-64
2023/02/01 09:53:39;;;;;;;12.00;2.72;;;;;;;-145.18;100.00;60484.78;5013323;28;20109;-63
2023/02/01 09:56:12;;;;;;;12.10;1.90;;;;;;;-145.18;100.00;60484.78;5013605;28;20030;-63
2023/02/01 09:58:55;;;;;;;10.60;2.00;;;;;;;-145.18;100.00;60484.78;5012999;28;20036;-64
2023/02/01 10:01:23;;;;;;;15.03;2.70;;;;;;;-145.18;100.00;60484.78;5016573;28;20013;-63
2023/02/01 10:03:50;;;;;;;15.33;2.87;;;;;;;-145.18;100.00;60484.78;5017833;28;20041;-64
2023/02/01 10:06:36;;;;;;;20.23;3.27;;;;;;;-145.18;100.00;60484.78;5012942;28;20584;-64
2023/02/01 10:09:14;;;;;;;36.27;3.37;;;;;;;-145.18;100.00;60484.78;5031779;28;20037;-64
2023/02/01 10:12:01;;;;;;;12.80;2.20;;;;;;;-145.18;100.00;60484.78;5024744;28;20022;-64
2023/02/01 10:14:33;;;;;;;13.10;1.93;;;;;;;-145.18;100.00;60484.78;5012267;28;20018;-64
2023/02/01 10:17:36;;;;;;;18.33;2.72;;;;;;;-145.18;100.00;60484.78;5013235;28;20551;-64
2023/02/01 10:20:12;;;;;;;14.27;2.90;;;;;;;-145.18;100.00;60484.78;5012007;28;20030;-64
2023/02/01 10:22:42;;;;;;;16.00;3.30;;;;;;;-145.18;100.00;60484.78;5012624;28;20485;-64
2023/02/01 10:25:26;;;;;;;10.60;2.20;;;;;;;-145.18;100.00;60484.78;5011968;28;20030;-64
2023/02/01 10:27:52;;;;;;;8.03;1.63;;;;;;;-145.18;100.00;60484.78;5012354;28;20022;-64
2023/02/01 10:30:22;;;;;;;16.10;2.80;;;;;;;-145.18;100.00;60484.78;5012931;28;20540;-66
2023/02/01 10:32:51;;;;;;;14.37;2.17;;;;;;;-145.18;100.00;60484.78;5024646;28;20037;-63
2023/02/01 10:35:31;;;;;;;10.53;2.43;;;;;;;-145.18;100.00;60484.78;5011870;28;20543;-64
2023/02/01 10:38:04;;;;;;;11.17;2.50;;;;;;;-145.18;100.00;60484.78;5009691;28;20083;-65
2023/02/01 10:40:29;;;;;;;11.67;2.33;;;;;;;-145.18;100.00;60484.78;5012155;28;20480;-64
2023/02/01 10:43:01;;;;;;;7.13;2.13;;;;;;;-145.18;100.00;60484.78;5012939;28;20029;-65
2023/02/01 10:45:32;;;;;;;16.63;2.73;;;;;;;-145.18;100.00;60484.78;5011710;28;20493;-65
2023/02/01 10:47:59;;;;;;;10.67;2.60;;;;;;;-145.18;100.00;60484.78;5012794;28;20499;-65
2023/02/01 10:50:51;;;;;;;14.33;2.47;;;;;;;-145.18;100.00;60484.78;5016425;28;20018;-65
2023/02/01 10:53:22;;;;;;;19.93;3.20;;;;;;;-145.18;100.00;60484.78;5012097;28;20771;-65
2023/02/01 10:55:54;;;;;;;19.80;2.83;;;;;;;-145.18;100.00;60484.78;5011174;28;20018;-65
2023/02/01 10:58:31;;;;;;;12.13;2.83;;;;;;;-145.18;100.00;60484.78;5012069;28;20064;-64
2023/02/01 11:01:03;;;;;;;16.00;3.23;;;;;;;-145.18;100.00;60484.78;5012219;28;20029;-65
2023/02/01 11:03:55;;;;;;;12.80;2.38;;;;;;;-145.18;100.00;60484.78;5010344;28;20774;-64
2023/02/01 11:06:23;;;;;;;;;;;;;;;-145.18;100.00;60484.78;5012010;28;20034;-65
2023/02/01 11:08:52;;;;;;;9.93;2.80;;;;;;;-145.18;100.00;60484.78;5013607;28;19963;-64
2023/02/01 11:11:18;;;;;;;15.17;2.63;;;;;;;-145.18;100.00;60484.78;5022885;28;20014;-64
2023/02/01 11:13:44;;;;;;;24.77;3.63;;;;;;;-145.18;100.00;60484.78;5011801;28;20477;-66
2023/02/01 11:16:17;;;;;;;12.77;2.60;;;;;;;-145.18;100.00;60484.78;5011972;28;20057;-65
2023/02/01 11:18:43;;;;;;;18.83;3.23;;;;;;;-145.18;100.00;60484.78;5011668;28;20481;-65
2023/02/01 11:21:11;;;;;;;9.43;2.63;;;;;;;-145.18;100.00;60484.78;5012296;28;20095;-65
2023/02/01 11:23:44;;;;;;;10.87;2.13;;;;;;;-145.18;100.00;60484.78;5011700;28;20485;-65
2023/02/01 11:26:10;;;;;;;13.97;2.77;;;;;;;-145.18;100.00;60484.78;5016733;28;20030;-66
2023/02/01 11:28:40;;;;;;;12.77;2.53;;;;;;;-145.18;100.00;60484.78;5020520;28;20033;-65
2023/02/01 11:31:09;;;;;;;10.77;2.40;;;;;;;-145.18;100.00;60484.78;5011447;28;20026;-65
2023/02/01 11:33:48;;;;;;;10.67;2.10;;;;;;;-145.18;100.00;60484.78;5010913;28;20029;-65
2023/02/01 11:36:20;;;;;;;10.03;2.73;;;;;;;-145.18;100.00;60484.78;5012003;28;20037;-64
2023/02/01 11:38:53;;;;;;;13.40;2.40;;;;;;;-145.18;100.00;60484.78;5011536;28;20025;-64